sensor_id;sensor_type;location;lat;lon;timestamp;temperature;humidity
25556;DHT22;13447;57.174;-2.112;2022-09-09T00:04:31;15.00;99.90
25556;DHT22;13447;57.174;-2.112;2022-09-09T00:07:24;15.10;99.90
25556;DHT22;13447;57.174;-2.112;2022-09-09T00:10:31;15.10;99.90
25556;DHT22;13447;57.174;-2.112;2022-09-09T00:13:22;15.00;99.90
25556;DHT22;13447;57.174;-2.112;2022-09-09T00:16:09;15.10;99.90
25556;DHT22;13447;57.174;-2.112;2022-09-09T00:19:01;15.10;99.90
25556;DHT22;13447;57.174;-2.112;2022-09-09T00:21:35;15.10;99.90
25556;DHT22;13447;57.174;-2.112;2022-09-09T00:26:48;15.10;99.90
25556;DHT22;13447;57.174;-2.112;2022-09-09T00:29:38;15.00;99.90
25556;DHT22;13447;57.174;-2.112;2022-09-09T00:32:18;15.00;99.90
25556;DHT22;13447;57.174;-2.112;2022-09-09T00:37:48;15.00;99.90
25556;DHT22;13447;57.174;-2.112;2022-09-09T00:40:33;15.00;99.90
25556;DHT22;13447;57.174;-2.112;2022-09-09T00:48:45;14.90;99.90
25556;DHT22;13447;57.174;-2.112;2022-09-09T00:51:44;14.80;99.90
25556;DHT22;13447;57.174;-2.112;2022-09-09T00:57:26;14.80;99.90
25556;DHT22;13447;57.174;-2.112;2022-09-09T00:59:59;14.80;99.90
25556;DHT22;13447;57.174;-2.112;2022-09-09T01:08:02;14.80;99.90
25556;DHT22;13447;57.174;-2.112;2022-09-09T01:13:35;14.80;99.90
25556;DHT22;13447;57.174;-2.112;2022-09-09T01:16:04;14.80;99.90
25556;DHT22;13447;57.174;-2.112;2022-09-09T01:18:43;14.80;99.90
25556;DHT22;13447;57.174;-2.112;2022-09-09T01:29:01;14.80;99.90
25556;DHT22;13447;57.174;-2.112;2022-09-09T01:31:38;14.80;99.90
25556;DHT22;13447;57.174;-2.112;2022-09-09T01:34:14;14.80;99.90
25556;DHT22;13447;57.174;-2.112;2022-09-09T01:37:10;14.80;99.90
25556;DHT22;13447;57.174;-2.112;2022-09-09T01:39:39;14.90;99.90
25556;DHT22;13447;57.174;-2.112;2022-09-09T01:42:09;14.90;99.90
25556;DHT22;13447;57.174;-2.112;2022-09-09T01:44:38;14.90;99.90
25556;DHT22;13447;57.174;-2.112;2022-09-09T01:47:06;14.80;99.90
25556;DHT22;13447;57.174;-2.112;2022-09-09T01:49:33;14.80;99.90
25556;DHT22;13447;57.174;-2.112;2022-09-09T01:52:00;14.90;99.90
25556;DHT22;13447;57.174;-2.112;2022-09-09T01:54:30;14.90;99.90
25556;DHT22;13447;57.174;-2.112;2022-09-09T01:57:18;14.90;99.90
25556;DHT22;13447;57.174;-2.112;2022-09-09T02:02:32;14.80;99.90
25556;DHT22;13447;57.174;-2.112;2022-09-09T02:07:59;14.80;99.90
25556;DHT22;13447;57.174;-2.112;2022-09-09T02:13:25;14.80;99.90
25556;DHT22;13447;57.174;-2.112;2022-09-09T02:19:37;14.80;99.90
25556;DHT22;13447;57.174;-2.112;2022-09-09T02:21:32;14.80;99.90
25556;DHT22;13447;57.174;-2.112;2022-09-09T02:24:05;14.80;99.90
25556;DHT22;13447;57.174;-2.112;2022-09-09T02:26:40;14.80;99.90
25556;DHT22;13447;57.174;-2.112;2022-09-09T02:29:13;14.70;99.90
25556;DHT22;13447;57.174;-2.112;2022-09-09T02:31:42;14.70;99.90
25556;DHT22;13447;57.174;-2.112;2022-09-09T02:34:11;14.80;99.90
25556;DHT22;13447;57.174;-2.112;2022-09-09T02:36:40;14.80;99.90
25556;DHT22;13447;57.174;-2.112;2022-09-09T02:39:10;14.80;99.90
25556;DHT22;13447;57.174;-2.112;2022-09-09T02:41:40;14.80;99.90
25556;DHT22;13447;57.174;-2.112;2022-09-09T02:44:25;14.80;99.90
25556;DHT22;13447;57.174;-2.112;2022-09-09T02:47:10;14.80;99.90
25556;DHT22;13447;57.174;-2.112;2022-09-09T02:49:45;14.80;99.90
25556;DHT22;13447;57.174;-2.112;2022-09-09T02:52:22;14.80;99.90
25556;DHT22;13447;57.174;-2.112;2022-09-09T02:54:59;14.80;99.90
25556;DHT22;13447;57.174;-2.112;2022-09-09T02:57:28;14.80;99.90
25556;DHT22;13447;57.174;-2.112;2022-09-09T03:00:00;14.80;99.90
25556;DHT22;13447;57.174;-2.112;2022-09-09T03:02:28;14.70;99.90
25556;DHT22;13447;57.174;-2.112;2022-09-09T03:04:55;14.70;99.90
25556;DHT22;13447;57.174;-2.112;2022-09-09T03:07:22;14.70;99.90
25556;DHT22;13447;57.174;-2.112;2022-09-09T03:09:49;14.70;99.90
25556;DHT22;13447;57.174;-2.112;2022-09-09T03:12:15;14.70;99.90
25556;DHT22;13447;57.174;-2.112;2022-09-09T03:14:43;14.70;99.90
25556;DHT22;13447;57.174;-2.112;2022-09-09T03:17:12;14.70;99.90
25556;DHT22;13447;57.174;-2.112;2022-09-09T03:19:38;14.70;99.90
25556;DHT22;13447;57.174;-2.112;2022-09-09T03:22:05;14.70;99.90
25556;DHT22;13447;57.174;-2.112;2022-09-09T03:24:32;14.70;99.90
25556;DHT22;13447;57.174;-2.112;2022-09-09T03:26:59;14.70;99.90
25556;DHT22;13447;57.174;-2.112;2022-09-09T03:29:26;14.70;99.90
25556;DHT22;13447;57.174;-2.112;2022-09-09T03:31:53;14.60;99.90
25556;DHT22;13447;57.174;-2.112;2022-09-09T03:34:20;14.60;99.90
25556;DHT22;13447;57.174;-2.112;2022-09-09T03:36:47;14.60;99.90
25556;DHT22;13447;57.174;-2.112;2022-09-09T03:39:15;14.60;99.90
25556;DHT22;13447;57.174;-2.112;2022-09-09T03:41:42;14.60;99.90
25556;DHT22;13447;57.174;-2.112;2022-09-09T03:44:11;14.60;99.90
25556;DHT22;13447;57.174;-2.112;2022-09-09T03:46:38;14.70;99.90
25556;DHT22;13447;57.174;-2.112;2022-09-09T03:49:06;14.70;99.90
25556;DHT22;13447;57.174;-2.112;2022-09-09T03:51:32;14.70;99.90
25556;DHT22;13447;57.174;-2.112;2022-09-09T03:54:03;14.70;99.90
25556;DHT22;13447;57.174;-2.112;2022-09-09T03:56:31;14.70;99.90
25556;DHT22;13447;57.174;-2.112;2022-09-09T03:58:58;14.70;99.90
25556;DHT22;13447;57.174;-2.112;2022-09-09T04:01:25;14.70;99.90
25556;DHT22;13447;57.174;-2.112;2022-09-09T04:03:52;14.60;99.90
25556;DHT22;13447;57.174;-2.112;2022-09-09T04:06:19;14.60;99.90
25556;DHT22;13447;57.174;-2.112;2022-09-09T04:08:47;14.60;99.90
25556;DHT22;13447;57.174;-2.112;2022-09-09T04:11:16;14.60;99.90
25556;DHT22;13447;57.174;-2.112;2022-09-09T04:13:43;14.60;99.90
25556;DHT22;13447;57.174;-2.112;2022-09-09T04:16:12;14.50;99.90
25556;DHT22;13447;57.174;-2.112;2022-09-09T04:18:42;14.50;99.90
25556;DHT22;13447;57.174;-2.112;2022-09-09T04:21:10;14.50;99.90
25556;DHT22;13447;57.174;-2.112;2022-09-09T04:23:39;14.50;99.90
25556;DHT22;13447;57.174;-2.112;2022-09-09T04:26:06;14.50;99.90
25556;DHT22;13447;57.174;-2.112;2022-09-09T04:28:35;14.50;99.90
25556;DHT22;13447;57.174;-2.112;2022-09-09T04:31:08;14.50;99.90
25556;DHT22;13447;57.174;-2.112;2022-09-09T04:33:36;14.50;99.90
25556;DHT22;13447;57.174;-2.112;2022-09-09T04:36:06;14.50;99.90
25556;DHT22;13447;57.174;-2.112;2022-09-09T04:38:33;14.40;99.90
25556;DHT22;13447;57.174;-2.112;2022-09-09T04:41:00;14.50;99.90
25556;DHT22;13447;57.174;-2.112;2022-09-09T04:43:28;14.50;99.90
25556;DHT22;13447;57.174;-2.112;2022-09-09T04:45:55;14.50;99.90
25556;DHT22;13447;57.174;-2.112;2022-09-09T04:48:22;14.50;99.90
25556;DHT22;13447;57.174;-2.112;2022-09-09T04:51:04;14.50;99.90
25556;DHT22;13447;57.174;-2.112;2022-09-09T04:53:32;14.50;99.90
25556;DHT22;13447;57.174;-2.112;2022-09-09T04:56:09;14.50;99.90
25556;DHT22;13447;57.174;-2.112;2022-09-09T04:58:39;14.50;99.90
25556;DHT22;13447;57.174;-2.112;2022-09-09T05:01:18;14.40;99.90
25556;DHT22;13447;57.174;-2.112;2022-09-09T05:03:46;14.40;99.90
25556;DHT22;13447;57.174;-2.112;2022-09-09T05:06:18;14.50;99.90
25556;DHT22;13447;57.174;-2.112;2022-09-09T05:08:45;14.50;99.90
25556;DHT22;13447;57.174;-2.112;2022-09-09T05:11:32;14.50;99.90
25556;DHT22;13447;57.174;-2.112;2022-09-09T05:14:03;14.50;99.90
25556;DHT22;13447;57.174;-2.112;2022-09-09T05:16:30;14.50;99.90
25556;DHT22;13447;57.174;-2.112;2022-09-09T05:18:58;14.50;99.90
25556;DHT22;13447;57.174;-2.112;2022-09-09T05:21:25;14.60;99.90
25556;DHT22;13447;57.174;-2.112;2022-09-09T05:23:53;14.60;99.90
25556;DHT22;13447;57.174;-2.112;2022-09-09T05:26:21;14.60;99.90
25556;DHT22;13447;57.174;-2.112;2022-09-09T05:28:49;14.60;99.90
25556;DHT22;13447;57.174;-2.112;2022-09-09T05:31:17;14.50;99.90
25556;DHT22;13447;57.174;-2.112;2022-09-09T05:33:47;14.60;99.90
25556;DHT22;13447;57.174;-2.112;2022-09-09T05:36:18;14.50;99.90
25556;DHT22;13447;57.174;-2.112;2022-09-09T05:38:46;14.50;99.90
25556;DHT22;13447;57.174;-2.112;2022-09-09T05:41:13;14.60;99.90
25556;DHT22;13447;57.174;-2.112;2022-09-09T05:43:43;14.60;99.90
25556;DHT22;13447;57.174;-2.112;2022-09-09T05:46:19;14.60;99.90
25556;DHT22;13447;57.174;-2.112;2022-09-09T05:48:47;14.70;99.90
25556;DHT22;13447;57.174;-2.112;2022-09-09T05:51:22;14.70;99.90
25556;DHT22;13447;57.174;-2.112;2022-09-09T05:53:51;14.70;99.90
25556;DHT22;13447;57.174;-2.112;2022-09-09T05:56:24;14.70;99.90
25556;DHT22;13447;57.174;-2.112;2022-09-09T05:58:52;14.70;99.90
25556;DHT22;13447;57.174;-2.112;2022-09-09T06:03:50;14.80;99.90
25556;DHT22;13447;57.174;-2.112;2022-09-09T06:06:19;14.70;99.90
25556;DHT22;13447;57.174;-2.112;2022-09-09T06:08:54;14.70;99.90
25556;DHT22;13447;57.174;-2.112;2022-09-09T06:11:29;14.80;99.90
25556;DHT22;13447;57.174;-2.112;2022-09-09T06:14:00;14.80;99.90
25556;DHT22;13447;57.174;-2.112;2022-09-09T06:16:29;14.80;99.90
25556;DHT22;13447;57.174;-2.112;2022-09-09T06:18:57;14.80;99.90
25556;DHT22;13447;57.174;-2.112;2022-09-09T06:21:32;14.80;99.90
25556;DHT22;13447;57.174;-2.112;2022-09-09T06:24:00;14.80;99.90
25556;DHT22;13447;57.174;-2.112;2022-09-09T06:26:40;14.90;99.90
25556;DHT22;13447;57.174;-2.112;2022-09-09T06:29:08;15.00;99.90
25556;DHT22;13447;57.174;-2.112;2022-09-09T06:31:36;14.90;99.90
25556;DHT22;13447;57.174;-2.112;2022-09-09T06:34:08;14.90;99.90
25556;DHT22;13447;57.174;-2.112;2022-09-09T06:36:37;14.90;99.90
25556;DHT22;13447;57.174;-2.112;2022-09-09T06:39:05;15.00;99.90
25556;DHT22;13447;57.174;-2.112;2022-09-09T06:41:39;14.90;99.90
25556;DHT22;13447;57.174;-2.112;2022-09-09T06:44:07;14.80;99.90
25556;DHT22;13447;57.174;-2.112;2022-09-09T06:46:34;14.90;99.90
25556;DHT22;13447;57.174;-2.112;2022-09-09T06:49:02;14.90;99.90
25556;DHT22;13447;57.174;-2.112;2022-09-09T06:51:32;15.00;99.90
25556;DHT22;13447;57.174;-2.112;2022-09-09T06:54:00;15.10;99.90
25556;DHT22;13447;57.174;-2.112;2022-09-09T06:56:37;15.10;99.90
25556;DHT22;13447;57.174;-2.112;2022-09-09T06:59:07;15.20;99.90
25556;DHT22;13447;57.174;-2.112;2022-09-09T07:01:40;15.30;99.90
25556;DHT22;13447;57.174;-2.112;2022-09-09T07:04:08;15.30;99.90
25556;DHT22;13447;57.174;-2.112;2022-09-09T07:06:38;15.30;99.90
25556;DHT22;13447;57.174;-2.112;2022-09-09T07:09:08;15.30;99.90
25556;DHT22;13447;57.174;-2.112;2022-09-09T07:11:40;15.30;99.90
25556;DHT22;13447;57.174;-2.112;2022-09-09T07:14:08;15.30;99.90
25556;DHT22;13447;57.174;-2.112;2022-09-09T07:16:35;15.30;99.90
25556;DHT22;13447;57.174;-2.112;2022-09-09T09:17:51;17.20;99.90
25556;DHT22;13447;57.174;-2.112;2022-09-09T09:23:16;17.20;99.90
25556;DHT22;13447;57.174;-2.112;2022-09-09T09:25:46;17.20;99.90
25556;DHT22;13447;57.174;-2.112;2022-09-09T09:28:16;17.20;99.90
25556;DHT22;13447;57.174;-2.112;2022-09-09T09:31:11;17.10;99.90
25556;DHT22;13447;57.174;-2.112;2022-09-09T09:36:08;17.20;99.90
25556;DHT22;13447;57.174;-2.112;2022-09-09T09:38:36;17.00;99.90
25556;DHT22;13447;57.174;-2.112;2022-09-09T09:41:35;16.90;99.90
25556;DHT22;13447;57.174;-2.112;2022-09-09T09:44:03;16.80;99.90
25556;DHT22;13447;57.174;-2.112;2022-09-09T09:46:31;16.70;99.90
25556;DHT22;13447;57.174;-2.112;2022-09-09T09:49:08;16.60;99.90
25556;DHT22;13447;57.174;-2.112;2022-09-09T09:51:35;16.30;99.90
25556;DHT22;13447;57.174;-2.112;2022-09-09T09:56:43;16.40;99.90
25556;DHT22;13447;57.174;-2.112;2022-09-09T10:02:25;16.30;99.90
25556;DHT22;13447;57.174;-2.112;2022-09-09T10:07:42;16.40;99.90
25556;DHT22;13447;57.174;-2.112;2022-09-09T10:10:17;16.30;99.90
25556;DHT22;13447;57.174;-2.112;2022-09-09T10:13:11;16.20;99.90
25556;DHT22;13447;57.174;-2.112;2022-09-09T10:18:46;16.30;99.90
25556;DHT22;13447;57.174;-2.112;2022-09-09T10:21:51;16.60;99.90
25556;DHT22;13447;57.174;-2.112;2022-09-09T10:35:34;16.30;99.90
25556;DHT22;13447;57.174;-2.112;2022-09-09T10:38:39;16.40;99.90
25556;DHT22;13447;57.174;-2.112;2022-09-09T10:55:03;16.70;99.90
25556;DHT22;13447;57.174;-2.112;2022-09-09T10:59:47;16.40;99.90
25556;DHT22;13447;57.174;-2.112;2022-09-09T11:02:27;16.30;99.90
25556;DHT22;13447;57.174;-2.112;2022-09-09T11:08:04;16.50;99.90
25556;DHT22;13447;57.174;-2.112;2022-09-09T11:13:34;16.80;99.90
25556;DHT22;13447;57.174;-2.112;2022-09-09T11:19:14;16.90;99.90
25556;DHT22;13447;57.174;-2.112;2022-09-09T11:21:47;17.00;99.90
25556;DHT22;13447;57.174;-2.112;2022-09-09T11:24:47;17.20;99.90
25556;DHT22;13447;57.174;-2.112;2022-09-09T11:30:22;16.90;99.90
25556;DHT22;13447;57.174;-2.112;2022-09-09T11:33:34;16.90;99.90
25556;DHT22;13447;57.174;-2.112;2022-09-09T11:36:31;17.20;99.90
25556;DHT22;13447;57.174;-2.112;2022-09-09T11:42:19;17.50;99.90
25556;DHT22;13447;57.174;-2.112;2022-09-09T11:44:46;18.10;99.90
25556;DHT22;13447;57.174;-2.112;2022-09-09T13:19:18;17.60;99.90
25556;DHT22;13447;57.174;-2.112;2022-09-09T13:21:45;17.40;99.90
25556;DHT22;13447;57.174;-2.112;2022-09-09T13:24:32;17.40;99.90
25556;DHT22;13447;57.174;-2.112;2022-09-09T13:27:03;17.50;99.90
25556;DHT22;13447;57.174;-2.112;2022-09-09T13:29:33;17.40;99.90
25556;DHT22;13447;57.174;-2.112;2022-09-09T13:32:15;17.40;99.90
25556;DHT22;13447;57.174;-2.112;2022-09-09T13:34:51;17.30;99.90
25556;DHT22;13447;57.174;-2.112;2022-09-09T13:37:37;17.40;99.90
25556;DHT22;13447;57.174;-2.112;2022-09-09T13:40:12;17.40;99.90
25556;DHT22;13447;57.174;-2.112;2022-09-09T13:42:44;17.40;99.90
25556;DHT22;13447;57.174;-2.112;2022-09-09T13:45:17;17.10;99.90
25556;DHT22;13447;57.174;-2.112;2022-09-09T13:47:47;16.90;99.90
25556;DHT22;13447;57.174;-2.112;2022-09-09T13:52:54;16.90;99.90
25556;DHT22;13447;57.174;-2.112;2022-09-09T13:55:22;16.90;99.90
25556;DHT22;13447;57.174;-2.112;2022-09-09T13:57:57;16.80;99.90
25556;DHT22;13447;57.174;-2.112;2022-09-09T14:00:24;17.00;99.90
25556;DHT22;13447;57.174;-2.112;2022-09-09T14:02:51;17.20;99.90
25556;DHT22;13447;57.174;-2.112;2022-09-09T14:05:19;17.10;99.90
25556;DHT22;13447;57.174;-2.112;2022-09-09T14:07:46;17.20;99.90
25556;DHT22;13447;57.174;-2.112;2022-09-09T14:10:18;16.80;99.90
25556;DHT22;13447;57.174;-2.112;2022-09-09T14:12:46;16.80;99.90
25556;DHT22;13447;57.174;-2.112;2022-09-09T14:15:13;16.70;99.90
25556;DHT22;13447;57.174;-2.112;2022-09-09T14:17:41;16.80;99.90
25556;DHT22;13447;57.174;-2.112;2022-09-09T14:20:09;16.90;99.90
25556;DHT22;13447;57.174;-2.112;2022-09-09T14:22:38;16.90;99.90
25556;DHT22;13447;57.174;-2.112;2022-09-09T14:25:06;16.80;99.90
25556;DHT22;13447;57.174;-2.112;2022-09-09T14:27:33;16.80;99.90
25556;DHT22;13447;57.174;-2.112;2022-09-09T14:30:00;16.80;99.90
25556;DHT22;13447;57.174;-2.112;2022-09-09T14:32:27;16.80;99.90
25556;DHT22;13447;57.174;-2.112;2022-09-09T14:34:54;16.80;99.90
25556;DHT22;13447;57.174;-2.112;2022-09-09T14:37:21;16.80;99.90
25556;DHT22;13447;57.174;-2.112;2022-09-09T14:39:48;16.90;99.90
25556;DHT22;13447;57.174;-2.112;2022-09-09T14:42:17;17.10;99.90
25556;DHT22;13447;57.174;-2.112;2022-09-09T14:44:44;17.00;99.90
25556;DHT22;13447;57.174;-2.112;2022-09-09T14:47:11;17.00;99.90
25556;DHT22;13447;57.174;-2.112;2022-09-09T14:49:38;16.80;99.90
25556;DHT22;13447;57.174;-2.112;2022-09-09T14:52:09;16.70;99.90
25556;DHT22;13447;57.174;-2.112;2022-09-09T14:54:36;16.80;99.90
25556;DHT22;13447;57.174;-2.112;2022-09-09T14:57:03;17.00;99.90
25556;DHT22;13447;57.174;-2.112;2022-09-09T14:59:30;17.00;99.90
25556;DHT22;13447;57.174;-2.112;2022-09-09T15:01:57;16.80;99.90
25556;DHT22;13447;57.174;-2.112;2022-09-09T15:04:23;16.80;99.90
25556;DHT22;13447;57.174;-2.112;2022-09-09T15:06:50;16.50;99.90
25556;DHT22;13447;57.174;-2.112;2022-09-09T15:09:19;16.60;99.90
25556;DHT22;13447;57.174;-2.112;2022-09-09T15:11:46;16.50;99.90
25556;DHT22;13447;57.174;-2.112;2022-09-09T15:14:13;16.50;99.90
25556;DHT22;13447;57.174;-2.112;2022-09-09T15:16:40;16.40;99.90
25556;DHT22;13447;57.174;-2.112;2022-09-09T15:19:08;16.50;99.90
25556;DHT22;13447;57.174;-2.112;2022-09-09T15:21:36;16.50;99.90
25556;DHT22;13447;57.174;-2.112;2022-09-09T15:24:05;16.60;99.90
25556;DHT22;13447;57.174;-2.112;2022-09-09T15:26:34;16.50;99.90
25556;DHT22;13447;57.174;-2.112;2022-09-09T15:29:02;16.70;99.90
25556;DHT22;13447;57.174;-2.112;2022-09-09T15:31:30;16.40;99.90
25556;DHT22;13447;57.174;-2.112;2022-09-09T15:34:03;16.20;99.90
25556;DHT22;13447;57.174;-2.112;2022-09-09T15:36:39;16.40;99.90
25556;DHT22;13447;57.174;-2.112;2022-09-09T15:39:11;16.30;99.90
25556;DHT22;13447;57.174;-2.112;2022-09-09T15:41:45;16.20;99.90
25556;DHT22;13447;57.174;-2.112;2022-09-09T15:44:14;16.20;99.90
25556;DHT22;13447;57.174;-2.112;2022-09-09T15:46:49;16.20;99.90
25556;DHT22;13447;57.174;-2.112;2022-09-09T15:49:19;16.30;99.90
25556;DHT22;13447;57.174;-2.112;2022-09-09T15:51:54;16.40;99.90
25556;DHT22;13447;57.174;-2.112;2022-09-09T15:54:23;16.40;99.90
25556;DHT22;13447;57.174;-2.112;2022-09-09T15:56:55;16.40;99.90
25556;DHT22;13447;57.174;-2.112;2022-09-09T15:59:23;16.60;99.90
25556;DHT22;13447;57.174;-2.112;2022-09-09T16:01:51;16.60;99.90
25556;DHT22;13447;57.174;-2.112;2022-09-09T16:04:19;16.40;99.90
25556;DHT22;13447;57.174;-2.112;2022-09-09T16:07:00;16.40;99.90
25556;DHT22;13447;57.174;-2.112;2022-09-09T16:09:28;16.50;99.90
25556;DHT22;13447;57.174;-2.112;2022-09-09T16:11:57;16.30;99.90
25556;DHT22;13447;57.174;-2.112;2022-09-09T16:14:25;16.10;99.90
25556;DHT22;13447;57.174;-2.112;2022-09-09T16:16:53;16.30;99.90
25556;DHT22;13447;57.174;-2.112;2022-09-09T16:19:20;16.40;99.90
25556;DHT22;13447;57.174;-2.112;2022-09-09T16:21:48;16.30;99.90
25556;DHT22;13447;57.174;-2.112;2022-09-09T16:24:18;16.30;99.90
25556;DHT22;13447;57.174;-2.112;2022-09-09T16:26:48;16.40;99.90
25556;DHT22;13447;57.174;-2.112;2022-09-09T16:29:17;16.30;99.90
25556;DHT22;13447;57.174;-2.112;2022-09-09T16:31:45;16.40;99.90
25556;DHT22;13447;57.174;-2.112;2022-09-09T16:34:14;16.30;99.90
25556;DHT22;13447;57.174;-2.112;2022-09-09T16:36:42;16.30;99.90
25556;DHT22;13447;57.174;-2.112;2022-09-09T16:39:17;16.20;99.90
25556;DHT22;13447;57.174;-2.112;2022-09-09T16:41:46;16.20;99.90
25556;DHT22;13447;57.174;-2.112;2022-09-09T16:44:15;16.30;99.90
25556;DHT22;13447;57.174;-2.112;2022-09-09T16:46:46;16.30;99.90
25556;DHT22;13447;57.174;-2.112;2022-09-09T16:49:15;16.30;99.90
25556;DHT22;13447;57.174;-2.112;2022-09-09T16:51:47;16.40;99.90
25556;DHT22;13447;57.174;-2.112;2022-09-09T16:54:16;16.50;99.90
25556;DHT22;13447;57.174;-2.112;2022-09-09T16:56:47;16.50;99.90
25556;DHT22;13447;57.174;-2.112;2022-09-09T16:59:19;16.60;99.90
25556;DHT22;13447;57.174;-2.112;2022-09-09T17:01:47;16.60;99.90
25556;DHT22;13447;57.174;-2.112;2022-09-09T17:04:20;16.50;99.90
25556;DHT22;13447;57.174;-2.112;2022-09-09T17:06:49;16.50;99.90
25556;DHT22;13447;57.174;-2.112;2022-09-09T17:09:17;16.30;99.90
25556;DHT22;13447;57.174;-2.112;2022-09-09T17:11:44;16.30;99.90
25556;DHT22;13447;57.174;-2.112;2022-09-09T17:14:15;16.20;99.90
25556;DHT22;13447;57.174;-2.112;2022-09-09T17:16:43;16.20;99.90
25556;DHT22;13447;57.174;-2.112;2022-09-09T17:19:11;16.00;99.90
25556;DHT22;13447;57.174;-2.112;2022-09-09T17:21:39;15.90;99.90
25556;DHT22;13447;57.174;-2.112;2022-09-09T17:24:29;15.90;99.90
25556;DHT22;13447;57.174;-2.112;2022-09-09T17:26:56;15.80;99.90
25556;DHT22;13447;57.174;-2.112;2022-09-09T17:29:24;15.80;99.90
25556;DHT22;13447;57.174;-2.112;2022-09-09T17:31:52;15.80;99.90
25556;DHT22;13447;57.174;-2.112;2022-09-09T17:34:19;15.80;99.90
25556;DHT22;13447;57.174;-2.112;2022-09-09T17:36:45;15.80;99.90
25556;DHT22;13447;57.174;-2.112;2022-09-09T17:39:12;15.70;99.90
25556;DHT22;13447;57.174;-2.112;2022-09-09T17:41:39;15.70;99.90
25556;DHT22;13447;57.174;-2.112;2022-09-09T17:44:07;15.70;99.90
25556;DHT22;13447;57.174;-2.112;2022-09-09T17:46:38;15.60;99.90
25556;DHT22;13447;57.174;-2.112;2022-09-09T17:49:09;15.60;99.90
25556;DHT22;13447;57.174;-2.112;2022-09-09T17:51:37;15.50;99.90
25556;DHT22;13447;57.174;-2.112;2022-09-09T17:54:18;15.50;99.90
25556;DHT22;13447;57.174;-2.112;2022-09-09T17:56:47;15.50;99.90
25556;DHT22;13447;57.174;-2.112;2022-09-09T17:59:15;15.50;99.90
25556;DHT22;13447;57.174;-2.112;2022-09-09T18:01:45;15.40;99.90
25556;DHT22;13447;57.174;-2.112;2022-09-09T18:04:14;15.50;99.90
25556;DHT22;13447;57.174;-2.112;2022-09-09T18:06:44;15.40;99.90
25556;DHT22;13447;57.174;-2.112;2022-09-09T18:09:17;15.50;99.90
25556;DHT22;13447;57.174;-2.112;2022-09-09T18:11:46;15.50;99.90
25556;DHT22;13447;57.174;-2.112;2022-09-09T18:14:17;15.50;99.90
25556;DHT22;13447;57.174;-2.112;2022-09-09T18:16:46;15.50;99.90
25556;DHT22;13447;57.174;-2.112;2022-09-09T22:19:32;13.20;99.90
25556;DHT22;13447;57.174;-2.112;2022-09-09T22:22:00;13.20;99.90
25556;DHT22;13447;57.174;-2.112;2022-09-09T22:24:27;13.20;99.90
25556;DHT22;13447;57.174;-2.112;2022-09-09T22:26:54;13.20;99.90
25556;DHT22;13447;57.174;-2.112;2022-09-09T22:29:21;13.20;99.90
25556;DHT22;13447;57.174;-2.112;2022-09-09T22:31:48;13.10;99.90
25556;DHT22;13447;57.174;-2.112;2022-09-09T22:34:15;13.10;99.90
25556;DHT22;13447;57.174;-2.112;2022-09-09T22:36:43;13.00;99.90
25556;DHT22;13447;57.174;-2.112;2022-09-09T22:39:11;13.00;99.90
25556;DHT22;13447;57.174;-2.112;2022-09-09T22:41:38;13.10;99.90
25556;DHT22;13447;57.174;-2.112;2022-09-09T22:44:06;13.00;99.90
25556;DHT22;13447;57.174;-2.112;2022-09-09T22:46:33;13.00;99.90
25556;DHT22;13447;57.174;-2.112;2022-09-09T22:49:01;13.00;99.90
25556;DHT22;13447;57.174;-2.112;2022-09-09T22:51:29;13.00;99.90
25556;DHT22;13447;57.174;-2.112;2022-09-09T22:53:56;13.00;99.90
25556;DHT22;13447;57.174;-2.112;2022-09-09T22:56:23;13.00;99.90
25556;DHT22;13447;57.174;-2.112;2022-09-09T22:58:54;12.90;99.90
25556;DHT22;13447;57.174;-2.112;2022-09-09T23:01:23;12.90;99.90
25556;DHT22;13447;57.174;-2.112;2022-09-09T23:03:51;12.90;99.90
25556;DHT22;13447;57.174;-2.112;2022-09-09T23:06:24;12.80;99.90
25556;DHT22;13447;57.174;-2.112;2022-09-09T23:08:53;12.80;99.90
25556;DHT22;13447;57.174;-2.112;2022-09-09T23:11:29;12.70;99.90
25556;DHT22;13447;57.174;-2.112;2022-09-09T23:13:59;12.60;99.90
25556;DHT22;13447;57.174;-2.112;2022-09-09T23:16:34;12.60;99.90
25556;DHT22;13447;57.174;-2.112;2022-09-09T23:19:06;12.60;99.90
25556;DHT22;13447;57.174;-2.112;2022-09-09T23:21:38;12.60;99.90
25556;DHT22;13447;57.174;-2.112;2022-09-09T23:24:06;12.60;99.90
25556;DHT22;13447;57.174;-2.112;2022-09-09T23:26:34;12.60;99.90
25556;DHT22;13447;57.174;-2.112;2022-09-09T23:29:01;12.60;99.90
25556;DHT22;13447;57.174;-2.112;2022-09-09T23:31:33;12.50;99.90
25556;DHT22;13447;57.174;-2.112;2022-09-09T23:34:04;12.50;99.90
25556;DHT22;13447;57.174;-2.112;2022-09-09T23:36:32;12.50;99.90
25556;DHT22;13447;57.174;-2.112;2022-09-09T23:39:01;12.40;99.90
25556;DHT22;13447;57.174;-2.112;2022-09-09T23:41:30;12.40;99.90
25556;DHT22;13447;57.174;-2.112;2022-09-09T23:43:58;12.40;99.90
25556;DHT22;13447;57.174;-2.112;2022-09-09T23:46:29;12.40;99.90
25556;DHT22;13447;57.174;-2.112;2022-09-09T23:48:57;12.40;99.90
25556;DHT22;13447;57.174;-2.112;2022-09-09T23:51:26;12.40;99.90
25556;DHT22;13447;57.174;-2.112;2022-09-09T23:53:56;12.40;99.90
25556;DHT22;13447;57.174;-2.112;2022-09-09T23:56:26;12.40;99.90
25556;DHT22;13447;57.174;-2.112;2022-09-09T23:58:53;12.50;99.90
